Time;durP1;ratioP1;P1;durP2;ratioP2;P2;SDS_P1;SDS_P2;PMS_P1;PMS_P2;Temp;Humidity;BMP_temperature;BMP_pressure;BME280_temperature;BME280_humidity;BME280_pressure;Samples;Min_cycle;Max_cycle;Signal;HPM_P1;HPM_P2
2022/03/30 00:01:13;;;;;;;12.90;4.57;;;;;;;;;;5120107;28;20236;-68
2022/03/30 00:03:41;;;;;;;7.90;4.03;;;;;;;;;;5120663;28;20224;-68
2022/03/30 00:06:10;;;;;;;13.37;4.63;;;;;;;;;;5118986;28;20623;-67
2022/03/30 00:08:39;;;;;;;12.27;4.53;;;;;;;;;;5117599;28;20205;-67
2022/03/30 00:11:07;;;;;;;11.67;4.07;;;;;;;;;;5117035;28;20576;-67
2022/03/30 00:13:35;;;;;;;9.13;4.57;;;;;;;;;;5120152;28;20246;-67
2022/03/30 00:16:03;;;;;;;12.80;4.90;;;;;;;;;;5116653;27;20290;-67
2022/03/30 00:18:32;;;;;;;14.70;4.70;;;;;;;;;;5117406;28;20201;-68
2022/03/30 00:21:00;;;;;;;10.03;5.00;;;;;;;;;;5120259;28;20274;-68
2022/03/30 00:23:28;;;;;;;18.43;4.53;;;;;;;;;;5120133;28;20221;-69
2022/03/30 00:25:58;;;;;;;13.07;4.23;;;;;;;;;;5119915;28;20259;-69
2022/03/30 00:28:27;;;;;;;12.43;4.70;;;;;;;;;;5114395;28;20201;-68
2022/03/30 00:30:55;;;;;;;7.40;3.90;;;;;;;;;;5105820;28;20213;-68
2022/03/30 00:33:24;;;;;;;9.33;4.27;;;;;;;;;;5111054;28;20544;-68
2022/03/30 00:35:52;;;;;;;8.40;4.17;;;;;;;;;;5106435;28;20218;-68
2022/03/30 00:38:20;;;;;;;10.70;4.00;;;;;;;;;;5113031;28;20208;-68
2022/03/30 00:40:49;;;;;;;8.70;4.03;;;;;;;;;;5116960;28;20248;-68
2022/03/30 00:43:19;;;;;;;7.97;4.10;;;;;;;;;;5119953;28;20228;-68
2022/03/30 00:45:47;;;;;;;12.00;4.10;;;;;;;;;;5118737;28;20301;-68
2022/03/30 00:48:15;;;;;;;8.47;4.07;;;;;;;;;;5119225;28;20200;-67
2022/03/30 00:50:43;;;;;;;12.67;3.90;;;;;;;;;;5118346;28;20288;-69
2022/03/30 00:53:11;;;;;;;8.53;4.00;;;;;;;;;;5120216;28;20291;-69
2022/03/30 00:55:39;;;;;;;12.50;4.27;;;;;;;;;;5119485;28;20250;-69
2022/03/30 00:58:08;;;;;;;14.70;4.40;;;;;;;;;;5117970;28;20213;-69
2022/03/30 01:00:38;;;;;;;12.17;4.67;;;;;;;;;;5119246;28;20240;-70
2022/03/30 01:03:07;;;;;;;15.97;6.73;;;;;;;;;;5118948;28;20201;-69
2022/03/30 01:05:35;;;;;;;20.00;7.93;;;;;;;;;;5119445;28;20223;-69
2022/03/30 01:08:04;;;;;;;21.00;8.23;;;;;;;;;;5116241;28;20197;-69
2022/03/30 01:10:32;;;;;;;22.50;8.60;;;;;;;;;;5119653;28;20193;-68
2022/03/30 01:13:03;;;;;;;19.27;6.77;;;;;;;;;;5118778;28;20572;-68
2022/03/30 01:15:32;;;;;;;7.00;4.83;;;;;;;;;;5119142;28;20219;-67
2022/03/30 01:18:03;;;;;;;9.07;5.10;;;;;;;;;;5118046;28;20236;-68
2022/03/30 01:20:32;;;;;;;16.63;4.93;;;;;;;;;;5119741;28;20303;-67
2022/03/30 01:23:02;;;;;;;4.93;3.70;;;;;;;;;;5119415;28;20267;-67
2022/03/30 01:25:30;;;;;;;10.23;3.97;;;;;;;;;;5119610;28;20217;-68
2022/03/30 01:27:59;;;;;;;14.40;3.93;;;;;;;;;;5117206;28;20632;-67
2022/03/30 01:33:12;;;;;;;8.10;4.47;;;;;;;;;;5117119;28;20545;-67
2022/03/30 01:35:40;;;;;;;9.37;3.70;;;;;;;;;;5118810;28;20309;-67
2022/03/30 01:38:10;;;;;;;10.00;4.00;;;;;;;;;;5119204;28;20273;-67
2022/03/30 01:40:38;;;;;;;9.17;3.90;;;;;;;;;;5105831;28;20666;-67
2022/03/30 01:43:06;;;;;;;8.03;3.37;;;;;;;;;;5119265;28;20287;-67
2022/03/30 01:45:35;;;;;;;11.43;4.03;;;;;;;;;;5118989;28;20232;-67
2022/03/30 01:48:03;;;;;;;11.63;4.40;;;;;;;;;;5117242;28;20236;-67
2022/03/30 01:50:33;;;;;;;7.70;4.10;;;;;;;;;;5116460;28;20229;-67
2022/03/30 01:53:01;;;;;;;13.97;4.07;;;;;;;;;;5105738;28;20208;-67
2022/03/30 01:55:31;;;;;;;11.23;4.13;;;;;;;;;;5105616;28;20232;-67
2022/03/30 01:57:59;;;;;;;10.50;4.00;;;;;;;;;;5115183;28;20232;-67
2022/03/30 02:00:27;;;;;;;7.63;3.50;;;;;;;;;;5108527;28;20722;-67
2022/03/30 02:02:55;;;;;;;10.87;3.83;;;;;;;;;;5118262;28;20564;-67
2022/03/30 02:05:23;;;;;;;8.90;3.83;;;;;;;;;;5103134;28;20664;-67
2022/03/30 02:07:51;;;;;;;11.63;3.67;;;;;;;;;;5108280;28;20213;-67
2022/03/30 02:10:19;;;;;;;12.70;3.77;;;;;;;;;;5118768;28;20235;-67
2022/03/30 02:12:49;;;;;;;10.10;3.40;;;;;;;;;;5118914;28;20236;-67
2022/03/30 02:15:17;;;;;;;9.57;3.40;;;;;;;;;;5118341;28;20287;-67
2022/03/30 02:17:45;;;;;;;7.87;4.00;;;;;;;;;;5115178;27;20238;-67
2022/03/30 02:20:13;;;;;;;8.10;3.73;;;;;;;;;;5109463;28;20205;-67
2022/03/30 02:22:41;;;;;;;10.20;3.57;;;;;;;;;;5112463;28;20232;-67
2022/03/30 02:25:10;;;;;;;7.10;3.40;;;;;;;;;;5118564;28;20207;-67
2022/03/30 02:27:38;;;;;;;9.27;3.83;;;;;;;;;;5118501;28;20205;-67
2022/03/30 02:30:09;;;;;;;12.23;3.30;;;;;;;;;;5118332;28;20250;-67
2022/03/30 02:32:37;;;;;;;11.13;3.97;;;;;;;;;;5115970;28;20223;-67
2022/03/30 02:35:06;;;;;;;8.37;3.70;;;;;;;;;;5108261;28;20235;-67
2022/03/30 02:37:34;;;;;;;7.80;3.90;;;;;;;;;;5118343;28;20272;-67
2022/03/30 02:40:02;;;;;;;5.30;3.10;;;;;;;;;;5117503;28;20266;-67
2022/03/30 02:42:30;;;;;;;10.17;3.60;;;;;;;;;;5117993;28;20636;-67
2022/03/30 02:44:58;;;;;;;10.03;4.10;;;;;;;;;;5118345;28;20240;-67
2022/03/30 02:50:12;;;;;;;8.93;3.37;;;;;;;;;;5115303;28;20232;-67
2022/03/30 02:52:40;;;;;;;7.20;3.83;;;;;;;;;;5113219;28;20288;-67
2022/03/30 02:55:08;;;;;;;8.27;3.43;;;;;;;;;;5107260;28;20239;-67
2022/03/30 02:57:36;;;;;;;13.00;4.20;;;;;;;;;;5115972;28;20236;-67
2022/03/30 03:00:05;;;;;;;12.00;4.10;;;;;;;;;;5117485;28;20264;-68
2022/03/30 03:02:35;;;;;;;10.97;3.30;;;;;;;;;;5117794;28;20266;-67
2022/03/30 03:05:03;;;;;;;8.80;2.93;;;;;;;;;;5117883;28;20283;-67
2022/03/30 03:07:31;;;;;;;6.83;3.13;;;;;;;;;;5118036;28;20243;-69
2022/03/30 03:09:59;;;;;;;9.67;3.07;;;;;;;;;;5108972;28;20280;-69
2022/03/30 03:12:27;;;;;;;11.90;3.87;;;;;;;;;;5113233;28;20688;-69
2022/03/30 03:14:55;;;;;;;11.07;2.80;;;;;;;;;;5118369;27;20723;-69
2022/03/30 03:17:23;;;;;;;10.30;3.30;;;;;;;;;;5110561;28;20261;-69
2022/03/30 03:19:52;;;;;;;9.10;3.27;;;;;;;;;;5119121;28;20258;-69
2022/03/30 03:22:20;;;;;;;8.57;2.80;;;;;;;;;;5121973;28;20263;-69
2022/03/30 03:24:48;;;;;;;9.53;2.97;;;;;;;;;;5121853;28;20300;-69
2022/03/30 03:27:16;;;;;;;7.60;3.23;;;;;;;;;;5121892;28;20260;-69
2022/03/30 03:29:44;;;;;;;11.70;3.50;;;;;;;;;;5116647;28;20225;-68
2022/03/30 03:32:12;;;;;;;6.27;3.33;;;;;;;;;;5113474;28;20228;-69
2022/03/30 03:34:40;;;;;;;5.90;2.63;;;;;;;;;;5121498;28;20259;-68
2022/03/30 03:37:11;;;;;;;13.27;3.50;;;;;;;;;;5121713;28;20267;-69
2022/03/30 03:39:40;;;;;;;7.27;3.03;;;;;;;;;;5119480;28;20706;-69
2022/03/30 03:42:08;;;;;;;8.37;3.00;;;;;;;;;;5121212;28;20681;-69
2022/03/30 03:44:36;;;;;;;8.60;2.87;;;;;;;;;;5115849;27;20636;-69
2022/03/30 03:47:07;;;;;;;14.00;3.20;;;;;;;;;;5120685;28;20249;-69
2022/03/30 03:49:35;;;;;;;13.93;3.13;;;;;;;;;;5116728;28;20280;-69
2022/03/30 03:52:03;;;;;;;5.60;2.97;;;;;;;;;;5120137;28;20197;-69
2022/03/30 03:54:33;;;;;;;8.47;2.80;;;;;;;;;;5117242;28;20668;-69
2022/03/30 03:57:01;;;;;;;6.13;3.17;;;;;;;;;;5118053;28;20719;-69
2022/03/30 03:59:29;;;;;;;7.07;3.43;;;;;;;;;;5120519;28;20233;-69
2022/03/30 04:01:57;;;;;;;6.13;2.67;;;;;;;;;;5120366;28;20300;-69
2022/03/30 04:04:25;;;;;;;8.40;3.47;;;;;;;;;;5119783;28;20224;-71
2022/03/30 04:06:53;;;;;;;8.90;3.30;;;;;;;;;;5120702;28;20252;-69
2022/03/30 04:09:21;;;;;;;10.30;3.93;;;;;;;;;;5113622;28;20226;-69
2022/03/30 04:11:52;;;;;;;10.17;3.40;;;;;;;;;;5117880;28;20221;-69
2022/03/30 04:14:20;;;;;;;7.23;3.27;;;;;;;;;;5120524;28;20256;-69
2022/03/30 04:16:48;;;;;;;7.97;2.90;;;;;;;;;;5117224;28;20275;-69
2022/03/30 04:19:16;;;;;;;8.57;3.23;;;;;;;;;;5120135;28;20196;-69
2022/03/30 04:21:45;;;;;;;6.83;2.93;;;;;;;;;;5119329;27;20217;-66
2022/03/30 04:24:13;;;;;;;6.13;2.97;;;;;;;;;;5117827;27;20223;-67
2022/03/30 04:26:41;;;;;;;11.70;3.33;;;;;;;;;;5119270;28;20220;-66
2022/03/30 04:29:11;;;;;;;11.27;3.57;;;;;;;;;;5120921;28;20228;-66
2022/03/30 04:31:39;;;;;;;6.80;3.40;;;;;;;;;;5120552;28;20283;-66
2022/03/30 04:34:07;;;;;;;8.90;3.57;;;;;;;;;;5120669;28;20241;-66
2022/03/30 04:36:35;;;;;;;10.53;3.43;;;;;;;;;;5120560;28;20311;-66
2022/03/30 04:39:03;;;;;;;6.93;2.90;;;;;;;;;;5120271;28;21719;-66
2022/03/30 04:41:31;;;;;;;9.03;3.17;;;;;;;;;;5115454;28;20241;-67
2022/03/30 04:44:01;;;;;;;7.83;3.23;;;;;;;;;;5113741;28;20201;-66
2022/03/30 04:46:31;;;;;;;8.90;3.27;;;;;;;;;;5115441;28;20915;-66
2022/03/30 04:48:59;;;;;;;9.83;3.50;;;;;;;;;;5120370;28;20262;-66
2022/03/30 04:51:29;;;;;;;5.77;3.20;;;;;;;;;;5113691;28;20231;-67
2022/03/30 04:53:57;;;;;;;9.10;3.60;;;;;;;;;;5111056;28;20237;-66
2022/03/30 04:56:25;;;;;;;6.90;3.57;;;;;;;;;;5119328;28;20216;-66
2022/03/30 04:58:53;;;;;;;9.47;4.93;;;;;;;;;;5119142;28;20659;-66
2022/03/30 05:01:21;;;;;;;8.13;3.50;;;;;;;;;;5119209;28;20225;-67
2022/03/30 05:03:50;;;;;;;7.90;4.10;;;;;;;;;;5119374;28;20221;-67
2022/03/30 05:06:19;;;;;;;8.20;3.50;;;;;;;;;;5119066;28;20225;-67
2022/03/30 05:08:47;;;;;;;8.90;3.23;;;;;;;;;;5116896;28;20220;-67
2022/03/30 05:11:15;;;;;;;9.93;3.70;;;;;;;;;;5118127;28;20276;-67
2022/03/30 05:13:43;;;;;;;6.10;3.53;;;;;;;;;;5119254;28;20276;-67
2022/03/30 05:16:12;;;;;;;12.17;3.73;;;;;;;;;;5118835;28;20305;-67
2022/03/30 05:18:40;;;;;;;11.53;3.90;;;;;;;;;;5119153;28;20212;-66
2022/03/30 05:21:09;;;;;;;6.90;3.80;;;;;;;;;;5119159;28;20207;-67
2022/03/30 05:23:37;;;;;;;8.40;3.57;;;;;;;;;;5116927;28;20259;-67
2022/03/30 05:26:05;;;;;;;9.73;3.77;;;;;;;;;;5117995;28;20263;-66
2022/03/30 05:28:38;;;;;;;12.27;4.40;;;;;;;;;;5118886;28;20283;-67
2022/03/30 05:31:06;;;;;;;8.90;3.80;;;;;;;;;;5118930;28;20738;-67
2022/03/30 05:33:35;;;;;;;10.60;4.10;;;;;;;;;;5117604;28;20609;-67
2022/03/30 05:36:03;;;;;;;7.77;3.67;;;;;;;;;;5116391;28;20260;-67
2022/03/30 05:38:32;;;;;;;7.83;4.23;;;;;;;;;;5111444;28;20324;-67
2022/03/30 05:41:02;;;;;;;9.20;4.30;;;;;;;;;;5109861;28;20291;-66
2022/03/30 05:43:30;;;;;;;10.23;4.33;;;;;;;;;;5106224;28;20221;-66
2022/03/30 05:45:58;;;;;;;7.77;4.67;;;;;;;;;;5118573;28;20228;-67
2022/03/30 05:48:26;;;;;;;11.37;4.23;;;;;;;;;;5118852;28;20232;-67
2022/03/30 05:50:55;;;;;;;10.33;5.17;;;;;;;;;;5118855;28;20237;-67
2022/03/30 05:53:23;;;;;;;9.73;5.00;;;;;;;;;;5111335;27;20231;-72
2022/03/30 05:55:52;;;;;;;14.57;4.73;;;;;;;;;;5112983;28;20309;-72
2022/03/30 05:58:20;;;;;;;16.87;5.37;;;;;;;;;;5117244;28;20205;-75
2022/03/30 06:00:51;;;;;;;14.53;4.40;;;;;;;;;;5109095;28;20217;-72
2022/03/30 06:03:19;;;;;;;12.57;4.90;;;;;;;;;;5111667;28;20226;-72
2022/03/30 06:05:47;;;;;;;12.87;5.57;;;;;;;;;;5117901;28;20220;-71
2022/03/30 06:08:15;;;;;;;11.13;4.77;;;;;;;;;;5117742;28;20637;-71
2022/03/30 06:10:43;;;;;;;12.57;5.33;;;;;;;;;;5117359;28;20296;-71
2022/03/30 06:13:13;;;;;;;12.13;4.27;;;;;;;;;;5117390;28;20236;-71
2022/03/30 06:15:41;;;;;;;11.30;4.83;;;;;;;;;;5117886;28;20260;-71
2022/03/30 06:18:11;;;;;;;9.17;5.13;;;;;;;;;;5117715;28;20205;-71
2022/03/30 06:20:40;;;;;;;11.53;4.70;;;;;;;;;;5118264;28;20651;-71
2022/03/30 06:23:08;;;;;;;9.27;4.80;;;;;;;;;;5116963;28;20581;-72
2022/03/30 06:25:36;;;;;;;13.60;5.10;;;;;;;;;;5117603;28;20244;-73
2022/03/30 06:28:05;;;;;;;13.17;5.47;;;;;;;;;;5110370;28;20640;-72
2022/03/30 06:30:35;;;;;;;7.07;4.67;;;;;;;;;;5100071;28;20212;-70
2022/03/30 06:33:03;;;;;;;10.60;4.40;;;;;;;;;;5113113;28;20204;-71
2022/03/30 06:35:31;;;;;;;6.13;4.33;;;;;;;;;;5106680;28;20300;-73
2022/03/30 06:37:59;;;;;;;11.30;4.27;;;;;;;;;;5117419;28;20663;-70
2022/03/30 06:40:25;;;;;;;9.50;4.30;;;;;;;;;;5110316;28;20198;-71
2022/03/30 06:42:56;;;;;;;11.60;5.13;;;;;;;;;;5104798;28;20315;-70
2022/03/30 06:45:24;;;;;;;8.60;4.80;;;;;;;;;;5104522;28;20267;-71
2022/03/30 06:47:53;;;;;;;10.90;4.53;;;;;;;;;;5117284;28;20217;-71
2022/03/30 06:50:21;;;;;;;14.23;5.03;;;;;;;;;;5118100;28;20235;-71
2022/03/30 06:52:49;;;;;;;14.50;4.53;;;;;;;;;;5122146;28;20232;-71
2022/03/30 06:55:19;;;;;;;7.07;4.10;;;;;;;;;;5121386;28;20263;-71
2022/03/30 06:57:47;;;;;;;11.77;4.60;;;;;;;;;;5122121;28;20209;-71
2022/03/30 07:00:15;;;;;;;9.27;4.60;;;;;;;;;;5116346;27;20263;-71
2022/03/30 07:02:43;;;;;;;11.83;5.00;;;;;;;;;;5106558;28;20227;-71
2022/03/30 07:05:13;;;;;;;9.50;5.87;;;;;;;;;;5103899;28;20197;-70
2022/03/30 07:10:27;;;;;;;10.33;4.83;;;;;;;;;;5120677;28;20214;-70
2022/03/30 07:12:55;;;;;;;12.20;4.77;;;;;;;;;;5121500;28;20223;-69
2022/03/30 07:15:23;;;;;;;16.13;5.57;;;;;;;;;;5121554;28;20311;-70
2022/03/30 07:17:52;;;;;;;10.17;4.87;;;;;;;;;;5120334;28;20267;-69
2022/03/30 07:20:22;;;;;;;14.37;5.23;;;;;;;;;;5112617;28;20200;-69
2022/03/30 07:22:51;;;;;;;14.93;5.47;;;;;;;;;;5121108;28;20213;-69
2022/03/30 07:25:20;;;;;;;12.53;5.23;;;;;;;;;;5113803;28;20308;-70
2022/03/30 07:27:49;;;;;;;11.37;4.80;;;;;;;;;;5121719;28;20232;-70
2022/03/30 07:30:17;;;;;;;10.00;4.40;;;;;;;;;;5123110;28;20243;-70
2022/03/30 07:32:46;;;;;;;7.70;5.00;;;;;;;;;;5115034;28;20251;-70
2022/03/30 07:35:15;;;;;;;8.63;4.17;;;;;;;;;;5122449;28;20581;-70
2022/03/30 07:37:45;;;;;;;18.37;4.63;;;;;;;;;;5120322;28;20193;-68
2022/03/30 07:40:15;;;;;;;12.93;5.23;;;;;;;;;;5120081;28;20232;-69
2022/03/30 07:42:44;;;;;;;12.50;4.67;;;;;;;;;;5103352;28;20204;-69
2022/03/30 07:45:12;;;;;;;5.93;4.40;;;;;;;;;;5111837;28;20320;-68
2022/03/30 07:47:40;;;;;;;11.17;4.70;;;;;;;;;;5119619;28;20620;-68
2022/03/30 07:50:09;;;;;;;12.37;4.57;;;;;;;;;;5118003;28;20613;-68
2022/03/30 07:52:37;;;;;;;14.57;5.03;;;;;;;;;;5120346;28;20230;-69
2022/03/30 07:55:07;;;;;;;14.33;4.83;;;;;;;;;;5121712;27;20277;-69
2022/03/30 07:57:37;;;;;;;13.20;4.63;;;;;;;;;;5118140;28;20224;-69
2022/03/30 08:00:06;;;;;;;8.93;4.50;;;;;;;;;;5119812;28;20233;-69
2022/03/30 08:02:34;;;;;;;15.77;4.40;;;;;;;;;;5113649;28;20261;-68
2022/03/30 08:05:02;;;;;;;8.00;4.20;;;;;;;;;;5119029;28;20256;-69
2022/03/30 08:07:31;;;;;;;9.73;4.17;;;;;;;;;;5117368;28;20208;-69
2022/03/30 08:09:59;;;;;;;13.23;4.63;;;;;;;;;;5117939;28;20229;-69
2022/03/30 08:12:28;;;;;;;9.53;5.20;;;;;;;;;;5114651;28;20618;-69
2022/03/30 08:14:56;;;;;;;12.70;4.70;;;;;;;;;;5116431;28;20200;-69
2022/03/30 08:17:25;;;;;;;13.00;4.40;;;;;;;;;;5119896;28;20228;-69
2022/03/30 08:19:54;;;;;;;9.47;3.97;;;;;;;;;;5113651;28;20279;-69
2022/03/30 08:22:28;;;;;;;14.47;4.90;;;;;;;;;;5118950;28;20203;-68
2022/03/30 08:24:57;;;;;;;13.30;5.53;;;;;;;;;;5117753;28;20221;-71
2022/03/30 08:27:26;;;;;;;18.13;6.50;;;;;;;;;;5118379;28;20288;-71
2022/03/30 08:29:56;;;;;;;10.67;4.67;;;;;;;;;;5108241;28;20235;-71
2022/03/30 08:32:25;;;;;;;11.70;4.80;;;;;;;;;;5122393;27;20243;-71
2022/03/30 08:34:54;;;;;;;19.93;5.50;;;;;;;;;;5120106;28;20236;-71
2022/03/30 08:37:22;;;;;;;9.07;4.73;;;;;;;;;;5120241;28;20288;-71
2022/03/30 08:39:53;;;;;;;13.20;4.03;;;;;;;;;;5120191;28;20291;-70
2022/03/30 08:42:21;;;;;;;12.60;4.57;;;;;;;;;;5119800;28;20200;-71
2022/03/30 08:44:50;;;;;;;10.10;4.83;;;;;;;;;;5119516;28;20255;-70
2022/03/30 08:47:20;;;;;;;10.87;4.67;;;;;;;;;;5119873;28;20264;-71
2022/03/30 08:49:50;;;;;;;9.47;4.07;;;;;;;;;;5113421;28;20203;-71
2022/03/30 08:52:19;;;;;;;9.43;4.40;;;;;;;;;;5120227;28;20205;-71
2022/03/30 08:54:50;;;;;;;8.50;4.07;;;;;;;;;;5120048;28;20204;-71
2022/03/30 08:57:18;;;;;;;9.13;5.00;;;;;;;;;;5119825;28;20224;-71
2022/03/30 08:59:59;;;;;;;12.83;4.53;;;;;;;;;;5108851;28;20313;-71
2022/03/30 09:02:38;;;;;;;11.67;5.07;;;;;;;;;;5119944;28;20240;-71
2022/03/30 09:05:18;;;;;;;12.73;5.10;;;;;;;;;;5117850;28;20231;-71
2022/03/30 09:07:49;;;;;;;14.80;5.30;;;;;;;;;;5106472;28;20293;-71
2022/03/30 09:10:19;;;;;;;16.40;4.80;;;;;;;;;;5117207;28;20291;-69
2022/03/30 09:12:48;;;;;;;13.63;5.20;;;;;;;;;;5117868;28;20209;-69
2022/03/30 09:15:16;;;;;;;10.23;4.80;;;;;;;;;;5110640;27;20228;-71
2022/03/30 09:17:59;;;;;;;12.73;4.53;;;;;;;;;;5116194;28;20655;-71
2022/03/30 09:20:34;;;;;;;12.27;4.13;;;;;;;;;;5117452;27;20227;-69
2022/03/30 09:23:03;;;;;;;14.43;4.63;;;;;;;;;;5118832;28;20754;-70
2022/03/30 09:25:48;;;;;;;11.97;4.70;;;;;;;;;;5116401;28;20274;-71
2022/03/30 09:28:17;;;;;;;11.17;4.30;;;;;;;;;;5117536;28;20222;-68
2022/03/30 09:30:46;;;;;;;10.57;4.13;;;;;;;;;;5115683;28;20265;-69
2022/03/30 09:33:17;;;;;;;12.23;4.93;;;;;;;;;;5118884;28;20197;-70
2022/03/30 09:35:45;;;;;;;10.30;4.23;;;;;;;;;;5108150;28;20274;-70
2022/03/30 09:38:15;;;;;;;11.87;4.33;;;;;;;;;;5113661;28;20219;-68
2022/03/30 09:40:44;;;;;;;12.87;5.30;;;;;;;;;;5107786;28;20247;-67
2022/03/30 09:43:14;;;;;;;11.60;5.00;;;;;;;;;;5116292;28;20254;-68
2022/03/30 09:45:42;;;;;;;13.47;4.77;;;;;;;;;;5111435;28;20647;-67
2022/03/30 09:48:14;;;;;;;14.67;4.23;;;;;;;;;;5113565;28;20291;-69
2022/03/30 09:50:44;;;;;;;10.60;3.93;;;;;;;;;;5109036;28;20292;-66
2022/03/30 09:53:13;;;;;;;14.23;4.87;;;;;;;;;;5118135;28;20205;-66
2022/03/30 09:55:58;;;;;;;10.37;4.33;;;;;;;;;;5118571;28;20246;-66
2022/03/30 09:58:26;;;;;;;14.70;4.70;;;;;;;;;;5115835;28;20243;-67
2022/03/30 10:01:11;;;;;;;8.43;4.97;;;;;;;;;;5116826;28;20201;-67
2022/03/30 10:03:44;;;;;;;15.77;5.13;;;;;;;;;;5108306;28;20205;-68
2022/03/30 10:06:16;;;;;;;18.33;5.37;;;;;;;;;;5110365;28;20237;-67
2022/03/30 10:08:46;;;;;;;12.03;4.10;;;;;;;;;;5113572;28;20229;-67
2022/03/30 10:11:16;;;;;;;10.20;4.97;;;;;;;;;;5108795;28;20652;-67
2022/03/30 10:13:46;;;;;;;11.17;4.53;;;;;;;;;;5117729;28;20208;-67
2022/03/30 10:16:34;;;;;;;10.87;5.07;;;;;;;;;;5115598;28;20217;-70
2022/03/30 10:19:02;;;;;;;16.27;4.67;;;;;;;;;;5116186;28;20209;-72
2022/03/30 10:21:39;;;;;;;16.27;4.53;;;;;;;;;;5114179;28;20235;-68
2022/03/30 10:24:17;;;;;;;11.67;4.17;;;;;;;;;;5117359;28;20632;-69
2022/03/30 10:26:51;;;;;;;15.37;4.60;;;;;;;;;;5117885;28;20221;-68
2022/03/30 10:29:22;;;;;;;9.77;4.10;;;;;;;;;;5113436;28;20231;-67
2022/03/30 10:32:08;;;;;;;11.80;4.47;;;;;;;;;;5117840;28;20279;-68
2022/03/30 10:34:40;;;;;;;9.30;4.00;;;;;;;;;;5118240;28;20232;-70
2022/03/30 10:37:10;;;;;;;10.80;4.00;;;;;;;;;;5100740;28;20308;-71
2022/03/30 10:39:54;;;;;;;20.73;5.87;;;;;;;;;;5101835;28;20198;-65
2022/03/30 10:42:23;;;;;;;15.30;5.00;;;;;;;;;;5100083;28;20193;-65
2022/03/30 10:44:53;;;;;;;11.93;5.23;;;;;;;;;;5100736;28;21326;-65
2022/03/30 10:47:23;;;;;;;12.60;4.70;;;;;;;;;;5106448;28;20252;-65
2022/03/30 10:49:52;;;;;;;15.77;4.37;;;;;;;;;;5108825;28;20227;-65
2022/03/30 10:52:30;;;;;;;15.23;5.47;;;;;;;;;;5117979;28;20201;-65
2022/03/30 10:55:25;;;;;;;15.43;4.83;;;;;;;;;;5117641;28;20264;-65
2022/03/30 10:57:53;;;;;;;12.20;4.30;;;;;;;;;;5073583;28;20237;-69
2022/03/30 11:00:22;;;;;;;10.27;5.30;;;;;;;;;;5102593;28;20268;-70
2022/03/30 11:02:50;;;;;;;14.10;4.83;;;;;;;;;;5116443;28;20204;-70
2022/03/30 11:05:28;;;;;;;13.57;4.27;;;;;;;;;;5121235;28;20232;-70
2022/03/30 11:07:57;;;;;;;17.37;4.80;;;;;;;;;;5116793;28;20592;-70
2022/03/30 11:10:29;;;;;;;14.63;4.63;;;;;;;;;;5116400;28;20394;-74
2022/03/30 11:13:05;;;;;;;14.23;4.83;;;;;;;;;;5113911;28;20197;-72
2022/03/30 11:15:54;;;;;;;11.90;4.93;;;;;;;;;;5110252;28;20307;-74
2022/03/30 11:18:22;;;;;;;14.93;4.03;;;;;;;;;;5113782;28;20239;-74
2022/03/30 11:21:08;;;;;;;18.13;4.30;;;;;;;;;;5117828;28;20201;-75
2022/03/30 11:23:38;;;;;;;13.63;4.07;;;;;;;;;;5115726;28;20231;-76
2022/03/30 11:26:07;;;;;;;9.57;4.03;;;;;;;;;;5112137;28;20263;-75
2022/03/30 11:28:36;;;;;;;11.73;4.47;;;;;;;;;;5114660;28;20613;-75
2022/03/30 11:31:05;;;;;;;14.20;3.90;;;;;;;;;;5116707;28;20258;-75
2022/03/30 11:33:34;;;;;;;22.33;4.63;;;;;;;;;;5117415;28;20208;-75
2022/03/30 11:36:03;;;;;;;16.47;4.40;;;;;;;;;;5119297;28;20229;-75
2022/03/30 11:38:37;;;;;;;18.57;4.30;;;;;;;;;;5117750;28;20241;-74
2022/03/30 11:41:08;;;;;;;13.07;4.17;;;;;;;;;;5115030;28;20287;-75
2022/03/30 11:46:26;;;;;;;10.23;4.13;;;;;;;;;;5117289;28;20246;-76
2022/03/30 11:48:59;;;;;;;9.43;3.53;;;;;;;;;;5120384;27;20209;-75
2022/03/30 11:51:28;;;;;;;10.93;3.90;;;;;;;;;;5118506;28;20731;-75
2022/03/30 11:54:12;;;;;;;14.03;5.23;;;;;;;;;;5116810;28;20216;-74
2022/03/30 11:56:42;;;;;;;11.70;4.17;;;;;;;;;;5111370;28;20213;-75
2022/03/30 11:59:10;;;;;;;17.20;5.17;;;;;;;;;;5115723;28;20241;-74
2022/03/30 12:01:44;;;;;;;11.43;4.13;;;;;;;;;;5122562;28;20216;-74
2022/03/30 12:04:13;;;;;;;14.03;4.07;;;;;;;;;;5121628;28;20208;-76
2022/03/30 12:06:45;;;;;;;16.77;4.47;;;;;;;;;;5120704;28;20229;-75
2022/03/30 12:09:15;;;;;;;15.07;4.27;;;;;;;;;;5119386;28;20541;-75
2022/03/30 12:11:45;;;;;;;15.67;3.70;;;;;;;;;;5120378;28;20205;-76
2022/03/30 12:14:14;;;;;;;12.03;4.37;;;;;;;;;;5108268;28;20209;-75
2022/03/30 12:16:42;;;;;;;11.10;4.43;;;;;;;;;;5118917;28;20252;-75
2022/03/30 12:19:16;;;;;;;8.63;3.60;;;;;;;;;;5118172;28;20235;-74
2022/03/30 12:21:44;;;;;;;13.30;4.90;;;;;;;;;;5113294;28;20205;-74
2022/03/30 12:24:16;;;;;;;10.43;4.30;;;;;;;;;;5119878;28;20208;-75
2022/03/30 12:26:51;;;;;;;11.43;3.63;;;;;;;;;;5116356;28;20224;-74
2022/03/30 12:29:19;;;;;;;12.13;3.77;;;;;;;;;;5117677;28;20201;-75
2022/03/30 12:31:51;;;;;;;9.23;3.93;;;;;;;;;;5117009;27;20617;-75
2022/03/30 12:34:21;;;;;;;15.90;4.37;;;;;;;;;;5119299;28;20554;-75
2022/03/30 12:36:50;;;;;;;10.90;3.40;;;;;;;;;;5119782;28;20718;-74
2022/03/30 12:39:19;;;;;;;12.27;4.53;;;;;;;;;;5119317;28;20231;-75
2022/03/30 12:41:57;;;;;;;14.47;4.53;;;;;;;;;;5120038;28;20211;-75
2022/03/30 12:44:27;;;;;;;11.03;3.70;;;;;;;;;;5119913;28;20284;-75
2022/03/30 12:46:58;;;;;;;15.83;4.40;;;;;;;;;;5113124;28;20282;-75
2022/03/30 12:49:33;;;;;;;15.40;4.03;;;;;;;;;;5113988;28;20244;-74
2022/03/30 12:52:08;;;;;;;14.40;4.23;;;;;;;;;;5114923;28;20200;-74
2022/03/30 12:54:37;;;;;;;11.60;3.97;;;;;;;;;;5118284;28;20228;-74
2022/03/30 12:57:06;;;;;;;13.03;4.07;;;;;;;;;;5116152;28;20269;-73
2022/03/30 12:59:35;;;;;;;14.60;4.63;;;;;;;;;;5119389;28;20269;-74
2022/03/30 13:02:23;;;;;;;12.53;4.47;;;;;;;;;;5118845;28;20250;-73
2022/03/30 13:04:54;;;;;;;21.47;4.80;;;;;;;;;;5114562;28;20261;-73
2022/03/30 13:07:25;;;;;;;14.00;4.20;;;;;;;;;;5118724;28;20429;-74
2022/03/30 13:10:05;;;;;;;8.27;3.73;;;;;;;;;;5119249;28;20226;-74
2022/03/30 13:12:39;;;;;;;11.80;3.63;;;;;;;;;;5119172;27;20274;-69
2022/03/30 13:15:10;;;;;;;12.90;4.10;;;;;;;;;;5116869;28;20656;-69
2022/03/30 13:17:53;;;;;;;13.07;4.23;;;;;;;;;;5118951;28;20225;-69
2022/03/30 13:20:21;;;;;;;14.20;4.50;;;;;;;;;;5114057;28;20224;-69
2022/03/30 13:22:52;;;;;;;16.13;4.57;;;;;;;;;;5116055;28;20610;-69
2022/03/30 13:25:24;;;;;;;17.87;6.63;;;;;;;;;;5116222;28;20220;-69
2022/03/30 13:27:54;;;;;;;14.53;4.13;;;;;;;;;;5118281;28;20303;-70
2022/03/30 13:30:23;;;;;;;11.07;3.87;;;;;;;;;;5115501;28;20197;-71
2022/03/30 13:32:51;;;;;;;13.97;3.70;;;;;;;;;;5112710;28;20194;-71
2022/03/30 13:35:19;;;;;;;13.70;4.30;;;;;;;;;;5106365;28;20676;-69
2022/03/30 13:37:47;;;;;;;9.30;3.70;;;;;;;;;;5116150;28;20723;-69
2022/03/30 13:40:15;;;;;;;10.87;3.83;;;;;;;;;;5114869;28;20287;-69
2022/03/30 13:42:44;;;;;;;12.47;4.13;;;;;;;;;;5115120;28;20275;-69
2022/03/30 13:45:14;;;;;;;13.30;3.33;;;;;;;;;;5118767;28;20204;-70
2022/03/30 13:47:42;;;;;;;15.10;4.27;;;;;;;;;;5117341;28;20216;-70
2022/03/30 13:50:11;;;;;;;15.10;3.97;;;;;;;;;;5115436;28;20759;-69
2022/03/30 13:52:39;;;;;;;9.33;4.20;;;;;;;;;;5117885;28;20721;-69
2022/03/30 13:55:09;;;;;;;7.73;3.27;;;;;;;;;;5115391;28;20608;-70
2022/03/30 13:57:37;;;;;;;12.63;3.90;;;;;;;;;;5116342;28;20344;-69
2022/03/30 14:00:08;;;;;;;16.10;3.50;;;;;;;;;;5118042;28;20240;-70
2022/03/30 14:02:37;;;;;;;7.77;3.17;;;;;;;;;;5118095;28;20208;-69
2022/03/30 14:05:06;;;;;;;16.67;3.87;;;;;;;;;;5115975;28;20197;-70
2022/03/30 14:07:35;;;;;;;13.53;3.93;;;;;;;;;;5117116;28;20741;-70
2022/03/30 14:10:03;;;;;;;14.47;3.60;;;;;;;;;;5118332;28;20208;-70
2022/03/30 14:12:32;;;;;;;12.77;3.67;;;;;;;;;;5115957;28;20208;-70
2022/03/30 14:15:00;;;;;;;14.20;3.83;;;;;;;;;;5117201;28;20684;-71
2022/03/30 14:17:28;;;;;;;13.13;3.70;;;;;;;;;;5117435;28;20225;-70
2022/03/30 14:19:58;;;;;;;13.93;3.90;;;;;;;;;;5115468;28;20197;-71
2022/03/30 14:22:26;;;;;;;7.90;4.07;;;;;;;;;;5115153;28;20683;-69
2022/03/30 14:24:54;;;;;;;10.40;3.77;;;;;;;;;;5117398;28;20220;-71
2022/03/30 14:27:22;;;;;;;18.53;4.47;;;;;;;;;;5117353;28;20248;-71
2022/03/30 14:29:50;;;;;;;9.20;3.90;;;;;;;;;;5117017;28;20280;-73
2022/03/30 14:32:18;;;;;;;8.40;3.93;;;;;;;;;;5116811;28;20238;-74
2022/03/30 14:34:48;;;;;;;8.63;3.27;;;;;;;;;;5116760;28;20279;-70
2022/03/30 14:37:17;;;;;;;13.10;3.80;;;;;;;;;;5116630;28;20309;-71
2022/03/30 14:39:45;;;;;;;9.80;3.43;;;;;;;;;;5110181;28;20194;-70
2022/03/30 14:42:14;;;;;;;12.30;3.83;;;;;;;;;;5109669;28;20205;-71
2022/03/30 14:44:42;;;;;;;8.10;3.07;;;;;;;;;;5118511;28;20204;-70
2022/03/30 14:47:10;;;;;;;8.87;3.27;;;;;;;;;;5106248;28;20229;-71
2022/03/30 14:49:38;;;;;;;10.93;3.80;;;;;;;;;;5114838;28;20209;-70
2022/03/30 14:52:09;;;;;;;9.07;3.33;;;;;;;;;;5109205;28;20739;-70
2022/03/30 14:54:38;;;;;;;7.40;3.33;;;;;;;;;;5117445;28;20223;-70
2022/03/30 14:57:06;;;;;;;9.43;3.40;;;;;;;;;;5117325;28;20224;-69
2022/03/30 14:59:34;;;;;;;9.33;2.90;;;;;;;;;;5102623;28;20307;-70